Historyczne dane pomiarowe

Dodano dane terminowe – wersja testowa.

Dane z okresu 1951-2019

Wersja bazy: 1.34 [2019-03-16, lista zmian], aktualizacja planowana na 2019-04-15

Dane meteo z obszaru Polski uzyskane na podstawie danych udostępnionych przez Instytut Meteorologii i Gospodarki Wodnej – Państwowy Instytut Badawczy.

 

Wybierz Datę:    

       

TemperaturaWilgotnośćWiatrCiśnienieOpadyŚniegCzas trwania zjawisk
 Stacja t tx tn tng RH VA  wxwx mslp ppp RRR   cm mm wxwxwxwxwxwxwx
1968-08-13 14.3 18.2 6.8- 73.3- 6.3 3.3---- 0.0------------
1968-08-14 18.3 24.8 7.8- 56.0- 4.0 2.7---- 0.0------------
1968-08-15 13.2 21.2 9.8- 82.3- 8.0 3.0---- 0.0------------
1968-08-16 14.9 21.2 6.8- 73.0- 6.7 3.0---- 1.2------------
1968-08-17 17.4 22.9 8.2- 70.5- 3.3 2.7---- 24.1------------
1968-08-18 14.5 19.6 12.4- 79.3- 8.0 4.0---- 0.0------------
1968-08-19 13.6 20.8 4.2- 84.0- 6.7 1.3---- 0.0------------
1968-08-20 12.0 15.6 5.6- 87.0- 7.3 1.7---- 3.6------------
1968-08-21 13.3 18.2 11.0- 80.0- 6.7 2.7---- 0.0------------
1968-08-22 15.4 22.2 9.5- 77.8- 4.0 2.0---- 0.0------------
1968-08-23 21.5 28.5 14.2- 73.0- 3.0 2.7---- 0.0------------
1968-08-24 21.3 27.4 11.2- 64.3- 0.3 2.3---- 0.0------------
1968-08-25 19.8 25.5 12.2- 82.5- 5.0 2.7---- 0.0------------
1968-08-26 19.1 23.1 10.9- 84.8- 3.3 1.3---- 6.2------------
1968-08-27 21.8 26.5 12.1- 68.0- 3.0 1.7---- 0.0------------
1968-08-28 21.3 27.5 9.8- 69.0- 4.0 1.7---- 0.0------------
1968-08-29 19.9 28.1 9.6- 86.0- 4.0 2.0---- 13.2------------
1968-08-30 20.0 26.8 10.3- 74.8- 4.0 2.0---- 0.0------------
1968-08-31 19.8 29.1 11.7- 86.5- 3.0 1.7---- 0.0------------
1968-09-01 20.2 25.7 9.4- 82.3- 4.3 1.3---- 5.2------------
1968-09-02 18.5 23.6 11.2- 87.3- 4.3 1.0---- 0.0------------
1968-09-03 19.4 26.8 14.2- 79.3- 2.7 1.3---- 0.0------------
1968-09-04 19.7 25.5 10.1- 78.8- 6.0 1.3---- 0.0------------
1968-09-05 21.6 28.5 10.3- 63.3- 5.3 1.7---- 0.0------------
1968-09-06 16.2 27.0 7.2- 78.3- 0.7 1.3---- 0.0------------
1968-09-07 16.7 27.0 9.5- 75.8- 0.3 1.0---- 0.0------------
1968-09-08 16.9 26.2 9.4- 78.0- 0.0 1.7---- 0.0------------
1968-09-09 13.4 20.2 8.9- 83.8- 6.7 1.3---- 0.0------------
1968-09-10 10.0 19.6 4.5- 72.3- 1.3 2.0---- 0.0------------
1968-09-11 7.2 20.1 -1.2- 81.0- 0.0 1.0---- 0.0------------
877.9 ms

 

Źródłem pochodzenia danych jest Instytut Meteorologii i Gospodarki Wodnej – Państwowy Instytut Badawczy. Dane Instytutu Meteorologii i Gospodarki Wodnej – Państwowego Instytutu Badawczego zostały przetworzone.

Dane źródłowe można odnaleźć na stronie https://dane.imgw.pl